createdAt,value
2023-01-19T00:01:27.493Z,74.11
2023-01-19T00:03:55.378Z,73.72
2023-01-19T00:06:23.230Z,73.76
2023-01-19T00:08:51.251Z,73.29
2023-01-19T00:11:19.363Z,73.09
2023-01-19T00:13:50.584Z,72.28
2023-01-19T00:16:23.087Z,72.46
2023-01-19T00:18:52.668Z,72.15
2023-01-19T00:21:21.638Z,72.48
2023-01-19T00:23:51.362Z,71.69
2023-01-19T00:26:22.089Z,72.29
2023-01-19T00:28:51.037Z,70.97
2023-01-19T00:31:21.809Z,70.96
2023-01-19T00:33:52.644Z,71.75
2023-01-19T00:36:20.677Z,70.76
2023-01-19T00:38:48.560Z,71.70
2023-01-19T00:41:16.615Z,70.93
2023-01-19T00:43:43.677Z,71.63
2023-01-19T00:46:11.822Z,72.25
2023-01-19T00:48:41.040Z,72.63
2023-01-19T00:51:10.506Z,71.45
2023-01-19T00:53:38.310Z,71.94
2023-01-19T00:56:06.964Z,71.46
2023-01-19T00:58:34.793Z,72.77
2023-01-19T01:01:04.860Z,72.34
2023-01-19T01:03:32.990Z,71.05
2023-01-19T01:06:03.665Z,71.83
2023-01-19T01:08:33.329Z,71.05
2023-01-19T01:11:01.221Z,71.91
2023-01-19T01:13:29.597Z,71.50
2023-01-19T01:15:58.356Z,71.88
2023-01-19T01:18:26.909Z,72.08
2023-01-19T01:20:56.294Z,72.20
2023-01-19T01:23:25.782Z,72.13
2023-01-19T01:25:53.976Z,71.42
2023-01-19T01:28:22.079Z,71.69
2023-01-19T01:30:53.994Z,71.56
2023-01-19T01:33:40.057Z,71.21
2023-01-19T01:36:10.386Z,71.44
2023-01-19T01:38:39.610Z,71.01
2023-01-19T01:41:07.865Z,71.11
2023-01-19T01:43:47.228Z,70.49
2023-01-19T01:46:17.204Z,71.14
2023-01-19T01:48:50.884Z,71.27
2023-01-19T01:51:25.393Z,70.53
2023-01-19T01:54:04.634Z,71.08
2023-01-19T01:56:36.375Z,71.33
2023-01-19T01:59:07.502Z,70.87
2023-01-19T02:01:53.277Z,71.73
2023-01-19T02:04:22.799Z,71.68
2023-01-19T02:07:08.272Z,71.47
2023-01-19T02:09:56.426Z,71.84
2023-01-19T02:12:42.138Z,71.54
2023-01-19T02:15:17.073Z,71.00
2023-01-19T02:17:45.131Z,71.66
2023-01-19T02:20:13.545Z,71.45
2023-01-19T02:22:47.588Z,71.44
2023-01-19T02:25:18.874Z,72.13
2023-01-19T02:27:47.407Z,72.10
2023-01-19T02:30:16.839Z,72.38
2023-01-19T02:32:44.900Z,72.24
2023-01-19T02:35:13.946Z,71.93
2023-01-19T02:37:43.303Z,72.32
2023-01-19T02:40:14.320Z,72.42
2023-01-19T02:42:45.990Z,72.46
2023-01-19T02:45:16.286Z,72.32
2023-01-19T02:47:46.484Z,72.04
2023-01-19T02:50:43.693Z,72.47
2023-01-19T02:53:43.873Z,72.34
2023-01-19T02:56:46.294Z,71.75
2023-01-19T02:59:24.371Z,72.57
2023-01-19T03:02:10.511Z,71.89
2023-01-19T03:04:54.868Z,72.17
2023-01-19T03:07:31.737Z,71.63
2023-01-19T03:10:05.069Z,72.35
2023-01-19T03:12:41.226Z,72.60
2023-01-19T03:15:18.382Z,72.78
2023-01-19T03:17:47.439Z,72.80
2023-01-19T03:20:18.890Z,72.80
2023-01-19T03:22:50.200Z,72.94
2023-01-19T03:25:20.542Z,72.14
2023-01-19T03:27:52.200Z,73.16
2023-01-19T03:30:25.312Z,73.67
2023-01-19T03:32:57.434Z,73.94
2023-01-19T03:35:30.160Z,73.40
2023-01-19T03:38:00.251Z,73.38
2023-01-19T03:40:31.194Z,74.00
2023-01-19T03:43:00.488Z,74.43
2023-01-19T03:45:32.664Z,74.14
2023-01-19T03:48:00.810Z,74.50
2023-01-19T03:50:31.265Z,73.83
2023-01-19T03:53:06.547Z,75.15
2023-01-19T03:55:34.903Z,74.99
2023-01-19T03:58:02.742Z,75.31
2023-01-19T04:00:32.235Z,75.02
2023-01-19T04:03:00.709Z,74.35
2023-01-19T04:05:29.469Z,74.97
2023-01-19T04:07:57.660Z,75.38
2023-01-19T04:10:26.265Z,75.36
2023-01-19T04:12:58.498Z,74.45
2023-01-19T04:15:26.751Z,75.27
2023-01-19T04:17:58.081Z,75.94
2023-01-19T04:20:27.107Z,74.36
2023-01-19T04:22:56.144Z,75.65
2023-01-19T04:25:24.080Z,75.59
2023-01-19T04:27:53.997Z,75.89
2023-01-19T04:30:22.658Z,75.84
2023-01-19T04:32:50.802Z,76.37
2023-01-19T04:35:21.426Z,76.19
2023-01-19T04:37:49.249Z,76.25
2023-01-19T04:40:17.537Z,76.43
2023-01-19T04:42:45.997Z,75.44
2023-01-19T04:45:14.890Z,76.65
2023-01-19T04:47:43.278Z,76.34
2023-01-19T04:50:12.195Z,77.39
2023-01-19T04:52:41.426Z,76.96
2023-01-19T04:55:10.484Z,77.69
2023-01-19T04:57:38.304Z,77.55
2023-01-19T05:00:07.586Z,77.51
2023-01-19T05:02:36.168Z,76.95
2023-01-19T05:05:04.606Z,78.11
2023-01-19T05:07:32.528Z,77.14
2023-01-19T05:10:01.895Z,75.82
2023-01-19T05:12:29.741Z,76.10
2023-01-19T05:14:57.527Z,77.08
2023-01-19T05:17:25.402Z,76.96
2023-01-19T05:19:53.228Z,77.45
2023-01-19T05:22:21.001Z,77.18
2023-01-19T05:24:48.837Z,77.08
2023-01-19T05:27:18.047Z,76.76
2023-01-19T05:29:45.861Z,76.63
2023-01-19T05:32:14.408Z,77.14
2023-01-19T05:34:42.186Z,76.54
2023-01-19T05:37:10.067Z,76.86
2023-01-19T05:39:38.149Z,78.71
2023-01-19T05:42:06.347Z,77.45
2023-01-19T05:44:35.812Z,77.65
2023-01-19T05:47:03.757Z,78.07
2023-01-19T05:49:31.612Z,77.96
2023-01-19T05:51:59.403Z,78.00
2023-01-19T05:54:27.259Z,79.14
2023-01-19T05:56:55.055Z,79.21
2023-01-19T05:59:24.194Z,79.89
2023-01-19T06:01:54.565Z,80.10
2023-01-19T06:04:22.701Z,80.73
2023-01-19T06:06:50.947Z,80.23
2023-01-19T06:09:18.996Z,80.27
2023-01-19T06:11:47.463Z,79.62
2023-01-19T06:14:15.498Z,80.63
2023-01-19T06:16:44.046Z,80.53
2023-01-19T06:19:13.805Z,79.38
2023-01-19T06:21:41.756Z,80.17
2023-01-19T06:24:12.174Z,79.64
2023-01-19T06:26:42.494Z,80.76
2023-01-19T06:29:10.853Z,81.58
2023-01-19T06:31:38.756Z,80.99
2023-01-19T06:34:06.884Z,80.99
2023-01-19T06:36:36.144Z,81.32
2023-01-19T06:39:05.919Z,80.96
2023-01-19T06:41:34.340Z,81.63
2023-01-19T06:44:02.573Z,81.99
2023-01-19T06:46:30.440Z,81.06
2023-01-19T06:48:58.416Z,81.88
2023-01-19T06:51:26.482Z,82.31
2023-01-19T06:53:55.641Z,81.38
2023-01-19T06:56:23.490Z,81.85
2023-01-19T06:58:51.969Z,82.02
2023-01-19T07:01:20.328Z,81.13
2023-01-19T07:03:48.259Z,81.20
2023-01-19T07:06:16.413Z,81.75
2023-01-19T07:08:44.245Z,81.19
2023-01-19T07:11:24.948Z,80.89
2023-01-19T07:13:59.123Z,79.78
2023-01-19T07:16:27.123Z,80.55
2023-01-19T07:18:54.989Z,81.52
2023-01-19T07:21:23.117Z,81.00
2023-01-19T07:23:51.915Z,81.12
2023-01-19T07:26:22.080Z,81.46
2023-01-19T07:28:50.318Z,81.17
2023-01-19T07:31:19.079Z,81.80
2023-01-19T07:33:47.637Z,81.48
2023-01-19T07:36:15.518Z,81.00
2023-01-19T07:38:43.373Z,81.50
2023-01-19T07:41:11.814Z,82.17
2023-01-19T07:43:41.242Z,82.17
2023-01-19T07:46:09.255Z,82.89
2023-01-19T07:48:37.113Z,82.89
2023-01-19T07:51:11.101Z,83.69
2023-01-19T07:53:41.842Z,83.86
2023-01-19T07:56:10.259Z,84.42
2023-01-19T07:58:38.130Z,84.12
2023-01-19T08:01:09.038Z,82.97
2023-01-19T08:03:37.099Z,82.85
2023-01-19T08:06:06.164Z,82.73
2023-01-19T08:08:34.904Z,82.44
2023-01-19T08:11:03.166Z,82.43
2023-01-19T08:13:30.962Z,82.32
2023-01-19T08:15:58.953Z,82.40
2023-01-19T08:18:28.188Z,83.24
2023-01-19T08:20:56.111Z,82.58
2023-01-19T08:23:23.986Z,82.22
2023-01-19T08:25:51.842Z,81.98
2023-01-19T08:28:20.144Z,82.08
2023-01-19T08:30:54.181Z,82.49
2023-01-19T08:33:25.332Z,81.85
2023-01-19T08:35:55.431Z,81.10
2023-01-19T08:38:23.216Z,81.45
2023-01-19T08:40:51.070Z,80.91
2023-01-19T08:43:19.386Z,81.66
2023-01-19T08:45:51.955Z,81.28
2023-01-19T08:48:22.508Z,80.62
2023-01-19T08:50:51.789Z,80.89
2023-01-19T08:53:23.727Z,80.40
2023-01-19T08:55:55.372Z,79.11
2023-01-19T08:58:23.401Z,78.63
2023-01-19T09:00:52.728Z,77.62
2023-01-19T09:03:23.015Z,77.21
2023-01-19T09:05:51.740Z,77.29
2023-01-19T09:08:21.194Z,78.54
2023-01-19T09:10:50.527Z,79.26
2023-01-19T09:13:19.397Z,78.79
2023-01-19T09:15:47.607Z,79.39
2023-01-19T09:18:17.710Z,78.52
2023-01-19T09:20:47.023Z,78.49
2023-01-19T09:23:16.837Z,77.78
2023-01-19T09:25:48.411Z,79.53
2023-01-19T09:28:18.026Z,78.95
2023-01-19T09:30:46.170Z,78.45
2023-01-19T09:33:16.520Z,79.87
2023-01-19T09:35:45.650Z,80.54
2023-01-19T09:38:16.311Z,80.80
2023-01-19T09:40:49.212Z,82.71
2023-01-19T09:43:26.189Z,82.92
2023-01-19T09:45:58.756Z,82.52
2023-01-19T09:48:43.743Z,82.34
2023-01-19T09:51:16.161Z,81.32
2023-01-19T09:53:56.644Z,81.38
2023-01-19T09:56:26.276Z,82.31
2023-01-19T09:58:54.378Z,82.63
2023-01-19T10:01:35.700Z,80.87
2023-01-19T10:04:20.040Z,81.36
2023-01-19T10:06:48.963Z,80.63
2023-01-19T10:09:25.980Z,79.30
2023-01-19T10:12:02.445Z,79.29
2023-01-19T10:14:36.417Z,80.11
2023-01-19T10:17:17.752Z,79.50
2023-01-19T10:19:49.552Z,78.69
2023-01-19T10:22:22.259Z,79.15
2023-01-19T10:24:54.858Z,77.64
2023-01-19T10:27:27.386Z,78.40
2023-01-19T10:29:56.593Z,78.52
2023-01-19T10:32:26.259Z,78.96
2023-01-19T10:34:58.290Z,79.34
2023-01-19T10:37:31.764Z,78.86
2023-01-19T10:40:03.754Z,78.17
2023-01-19T10:42:32.997Z,78.72
2023-01-19T10:45:00.887Z,78.78
2023-01-19T10:47:35.187Z,78.27
2023-01-19T10:50:19.625Z,78.73
2023-01-19T10:52:52.081Z,78.75
2023-01-19T10:55:29.995Z,79.06
2023-01-19T10:58:00.548Z,78.58
2023-01-19T11:00:34.451Z,77.95
2023-01-19T11:03:03.491Z,77.66
2023-01-19T11:05:33.130Z,78.58
2023-01-19T11:08:01.557Z,77.89
2023-01-19T11:10:30.387Z,78.22
2023-01-19T11:13:07.517Z,76.90
2023-01-19T11:15:42.154Z,78.21
2023-01-19T11:18:10.291Z,78.33
2023-01-19T11:20:50.915Z,79.45
2023-01-19T11:23:27.979Z,78.96
2023-01-19T11:25:58.881Z,78.83
2023-01-19T11:28:31.362Z,78.58
2023-01-19T11:31:01.413Z,79.12
2023-01-19T11:33:35.716Z,78.74
2023-01-19T11:36:06.356Z,79.26
2023-01-19T11:38:43.439Z,79.73
2023-01-19T11:41:19.945Z,80.36
2023-01-19T11:43:52.646Z,80.27
2023-01-19T11:46:21.939Z,79.97
2023-01-19T11:48:57.462Z,80.12
2023-01-19T11:51:29.774Z,79.91
2023-01-19T11:53:57.959Z,80.65
2023-01-19T11:56:29.965Z,80.88
2023-01-19T11:58:59.152Z,80.69
2023-01-19T12:01:31.196Z,80.27
2023-01-19T12:04:04.489Z,80.75
2023-01-19T12:06:36.545Z,80.44
2023-01-19T12:09:12.696Z,80.76
2023-01-19T12:11:45.197Z,81.40
2023-01-19T12:14:20.347Z,80.90
2023-01-19T12:16:49.246Z,80.03
2023-01-19T12:19:19.996Z,80.03
2023-01-19T12:21:49.005Z,80.15
2023-01-19T12:24:19.677Z,79.23
2023-01-19T12:26:54.978Z,79.30
2023-01-19T12:29:28.959Z,79.38
2023-01-19T12:32:19.143Z,79.24
2023-01-19T12:34:47.656Z,78.54
2023-01-19T12:37:42.136Z,79.62
2023-01-19T12:40:24.621Z,79.42
2023-01-19T12:42:59.448Z,79.23
2023-01-19T12:45:33.309Z,79.16
2023-01-19T12:48:02.431Z,78.89
2023-01-19T12:50:34.293Z,79.80
2023-01-19T12:53:03.812Z,79.45
2023-01-19T12:55:33.329Z,80.28
2023-01-19T12:58:05.232Z,80.43
2023-01-19T13:00:39.884Z,79.95
2023-01-19T13:03:45.628Z,79.58
2023-01-19T13:06:13.577Z,79.53
2023-01-19T13:08:59.417Z,79.74
2023-01-19T13:11:31.329Z,79.84
2023-01-19T13:14:36.640Z,81.01
2023-01-19T13:17:19.563Z,81.47
2023-01-19T13:20:08.224Z,80.83
2023-01-19T13:23:17.531Z,81.22
2023-01-19T13:25:50.405Z,81.55
2023-01-19T13:28:19.979Z,80.65
2023-01-19T13:30:56.927Z,79.89
2023-01-19T13:33:28.544Z,79.47
2023-01-19T13:35:58.996Z,80.10
2023-01-19T13:38:28.678Z,80.41
2023-01-19T13:40:58.242Z,79.54
2023-01-19T13:43:30.117Z,79.18
2023-01-19T13:45:58.169Z,80.22
2023-01-19T13:48:27.517Z,80.00
2023-01-19T13:51:02.447Z,80.07
2023-01-19T13:53:30.653Z,79.23
2023-01-19T13:56:20.896Z,78.93
2023-01-19T13:59:05.096Z,78.97
2023-01-19T14:01:33.341Z,79.89
2023-01-19T14:04:02.871Z,79.48
2023-01-19T14:06:39.773Z,78.97
2023-01-19T14:09:19.264Z,80.09
2023-01-19T14:11:49.734Z,79.84
2023-01-19T14:14:37.198Z,78.58
2023-01-19T14:17:05.341Z,78.48
2023-01-19T14:19:52.637Z,78.53
2023-01-19T14:22:20.799Z,79.62
2023-01-19T14:24:48.715Z,79.06
2023-01-19T14:27:25.586Z,78.74
2023-01-19T14:29:54.780Z,79.36
2023-01-19T14:32:24.350Z,79.69
2023-01-19T14:35:13.148Z,79.24
2023-01-19T14:37:48.867Z,79.48
2023-01-19T14:40:20.043Z,80.28
2023-01-19T14:42:52.792Z,80.09
2023-01-19T14:45:23.616Z,79.93
2023-01-19T14:47:57.507Z,79.85
2023-01-19T14:50:30.107Z,79.69
2023-01-19T14:53:00.619Z,79.70
2023-01-19T14:55:34.468Z,79.17
2023-01-19T14:58:02.350Z,79.63
2023-01-19T15:00:30.542Z,79.30
2023-01-19T15:02:58.689Z,79.50
2023-01-19T15:05:28.471Z,79.38
2023-01-19T15:07:56.655Z,79.61
2023-01-19T15:10:26.031Z,79.55
2023-01-19T15:12:55.528Z,80.42
2023-01-19T15:15:30.295Z,80.80
2023-01-19T15:17:58.764Z,81.95
2023-01-19T15:20:28.218Z,81.39
2023-01-19T15:22:56.206Z,81.85
2023-01-19T15:25:26.141Z,81.57
2023-01-19T15:27:54.309Z,82.35
2023-01-19T15:30:24.884Z,82.54
2023-01-19T15:32:52.844Z,83.03
2023-01-19T15:35:22.719Z,82.11
2023-01-19T15:37:52.191Z,82.38
2023-01-19T15:40:22.712Z,82.09
2023-01-19T15:42:50.858Z,81.83
2023-01-19T15:45:37.232Z,82.41
2023-01-19T15:48:07.068Z,83.28
2023-01-19T15:50:37.146Z,83.14
2023-01-19T15:53:06.595Z,83.04
2023-01-19T15:55:34.633Z,83.90
2023-01-19T15:58:02.672Z,83.53
2023-01-19T16:00:31.430Z,83.80
2023-01-19T16:02:59.838Z,83.94
2023-01-19T16:05:41.553Z,83.94
2023-01-19T16:08:12.411Z,83.26
2023-01-19T16:10:40.683Z,83.98
2023-01-19T16:13:08.856Z,83.93
2023-01-19T16:15:37.342Z,83.65
2023-01-19T16:18:06.201Z,83.05
2023-01-19T16:20:34.280Z,82.56
2023-01-19T16:23:14.595Z,81.57
2023-01-19T16:25:44.629Z,81.55
2023-01-19T16:28:12.510Z,81.51
2023-01-19T16:30:40.432Z,80.64
2023-01-19T16:33:11.761Z,80.13
2023-01-19T16:35:39.609Z,80.16
2023-01-19T16:38:09.453Z,79.58
2023-01-19T16:40:37.624Z,79.33
2023-01-19T16:43:07.000Z,79.22
2023-01-19T16:45:35.772Z,79.16
2023-01-19T16:48:03.778Z,78.22
2023-01-19T16:50:31.568Z,78.91
2023-01-19T16:52:59.510Z,78.71
2023-01-19T16:55:27.542Z,77.95
2023-01-19T16:57:56.555Z,78.12
2023-01-19T17:00:25.900Z,78.76
2023-01-19T17:02:55.212Z,78.44
2023-01-19T17:05:24.167Z,78.44
2023-01-19T17:07:52.007Z,77.79
2023-01-19T17:10:19.996Z,78.62
2023-01-19T17:12:47.841Z,78.44
2023-01-19T17:15:15.755Z,78.14
2023-01-19T17:17:45.068Z,78.30
2023-01-19T17:20:13.782Z,76.99
2023-01-19T17:22:41.980Z,77.22
2023-01-19T17:25:10.304Z,77.23
2023-01-19T17:27:38.169Z,76.84
2023-01-19T17:30:06.710Z,76.90
2023-01-19T17:32:34.637Z,76.85
2023-01-19T17:35:04.058Z,76.74
2023-01-19T17:37:32.017Z,77.06
2023-01-19T17:39:59.937Z,76.80
2023-01-19T17:42:27.876Z,76.62
2023-01-19T17:44:58.778Z,76.75
2023-01-19T17:47:26.660Z,76.09
2023-01-19T17:49:54.449Z,76.16
2023-01-19T17:52:23.709Z,75.27
2023-01-19T17:54:51.653Z,74.38
2023-01-19T17:57:19.467Z,74.33
2023-01-19T17:59:48.338Z,74.29
2023-01-19T18:02:16.581Z,73.03
2023-01-19T18:04:44.718Z,73.31
2023-01-19T18:07:12.508Z,72.99
2023-01-19T18:09:41.778Z,73.14
2023-01-19T18:12:09.719Z,72.05
2023-01-19T18:14:37.572Z,72.68
2023-01-19T18:17:05.746Z,72.38
2023-01-19T18:19:33.712Z,71.58
2023-01-19T18:22:01.578Z,72.27
2023-01-19T18:24:29.658Z,71.35
2023-01-19T18:26:58.980Z,70.87
2023-01-19T18:29:26.907Z,71.44
2023-01-19T18:31:54.966Z,71.79
2023-01-19T18:34:22.786Z,70.68
2023-01-19T18:36:50.666Z,71.29
2023-01-19T18:39:18.550Z,71.40
2023-01-19T18:41:46.468Z,70.91
2023-01-19T18:44:15.658Z,71.00
2023-01-19T18:46:43.613Z,70.90
2023-01-19T18:49:11.515Z,71.24
2023-01-19T18:51:40.457Z,71.35
2023-01-19T18:54:08.886Z,71.74
2023-01-19T18:56:36.733Z,71.03
2023-01-19T18:59:05.062Z,71.61
2023-01-19T19:01:35.257Z,71.50
2023-01-19T19:04:03.561Z,71.33
2023-01-19T19:06:31.525Z,71.30
2023-01-19T19:09:00.298Z,70.15
2023-01-19T19:11:31.389Z,70.24
2023-01-19T19:14:00.800Z,70.56
2023-01-19T19:16:29.762Z,70.04
2023-01-19T19:19:00.352Z,70.04
2023-01-19T19:21:28.846Z,69.50
2023-01-19T19:23:58.516Z,69.91
2023-01-19T19:26:28.310Z,69.93
2023-01-19T19:28:56.629Z,70.48
2023-01-19T19:31:26.160Z,70.01
2023-01-19T19:33:54.999Z,70.69
2023-01-19T19:36:25.068Z,69.88
2023-01-19T19:38:52.986Z,70.38
2023-01-19T19:41:23.697Z,70.46
2023-01-19T19:43:51.716Z,70.90
2023-01-19T19:46:21.246Z,70.88
2023-01-19T19:48:49.920Z,71.48
2023-01-19T19:51:22.520Z,70.66
2023-01-19T19:53:56.152Z,70.98
2023-01-19T19:56:25.690Z,70.62
2023-01-19T19:58:55.764Z,71.27
2023-01-19T20:01:27.724Z,71.47
2023-01-19T20:03:57.390Z,71.06
2023-01-19T20:06:26.549Z,71.17
2023-01-19T20:08:57.555Z,70.92
2023-01-19T20:11:28.140Z,70.89
2023-01-19T20:13:56.198Z,71.35
2023-01-19T20:16:25.488Z,71.07
2023-01-19T20:18:55.160Z,71.37
2023-01-19T20:21:26.022Z,71.32
2023-01-19T20:23:56.527Z,70.82
2023-01-19T20:26:26.621Z,71.00
2023-01-19T20:28:55.220Z,70.70
2023-01-19T20:31:25.280Z,71.48
2023-01-19T20:33:54.286Z,70.71
2023-01-19T20:36:24.295Z,71.71
2023-01-19T20:38:52.795Z,72.55
2023-01-19T20:41:23.599Z,72.31
2023-01-19T20:43:51.987Z,72.10
2023-01-19T20:46:20.458Z,72.74
2023-01-19T20:48:52.974Z,72.26
2023-01-19T20:51:22.364Z,72.52
2023-01-19T20:53:50.181Z,73.37
2023-01-19T20:56:18.187Z,72.67
2023-01-19T20:58:47.667Z,72.40
2023-01-19T21:01:18.123Z,72.81
2023-01-19T21:03:46.817Z,73.14
2023-01-19T21:06:15.712Z,73.67
2023-01-19T21:08:44.033Z,73.30
2023-01-19T21:11:13.169Z,73.91
2023-01-19T21:13:41.009Z,74.52
2023-01-19T21:16:10.752Z,73.88
2023-01-19T21:18:38.662Z,74.12
2023-01-19T21:21:09.100Z,74.72
2023-01-19T21:23:38.930Z,74.73
2023-01-19T21:26:07.006Z,74.53
2023-01-19T21:28:34.898Z,74.39
2023-01-19T21:31:07.731Z,74.30
2023-01-19T21:33:37.219Z,74.53
2023-01-19T21:36:05.439Z,75.04
2023-01-19T21:38:33.702Z,75.22
2023-01-19T21:41:07.275Z,73.85
2023-01-19T21:43:37.282Z,75.02
2023-01-19T21:46:12.327Z,74.13
2023-01-19T21:48:41.607Z,74.93
2023-01-19T21:51:09.857Z,74.88
2023-01-19T21:53:37.808Z,73.35
2023-01-19T21:56:07.970Z,74.02
2023-01-19T21:58:36.025Z,73.36
2023-01-19T22:01:06.093Z,73.82
2023-01-19T22:03:34.030Z,74.25
2023-01-19T22:06:07.016Z,74.37
2023-01-19T22:08:35.685Z,73.93
2023-01-19T22:11:05.618Z,74.29
2023-01-19T22:13:34.003Z,73.19
2023-01-19T22:16:02.534Z,73.80
2023-01-19T22:18:30.792Z,73.52
2023-01-19T22:21:09.989Z,73.03
2023-01-19T22:23:38.117Z,74.07
2023-01-19T22:26:06.462Z,73.76
2023-01-19T22:28:35.172Z,73.63
2023-01-19T22:31:07.396Z,74.28
2023-01-19T22:33:35.463Z,74.07
2023-01-19T22:36:15.767Z,74.63
2023-01-19T22:38:44.832Z,73.85
2023-01-19T22:41:14.976Z,74.26
2023-01-19T22:43:43.081Z,74.10
2023-01-19T22:46:11.304Z,74.28
2023-01-19T22:48:40.469Z,74.22
2023-01-19T22:51:08.700Z,73.41
2023-01-19T22:53:38.011Z,73.91
2023-01-19T22:56:13.836Z,74.01
2023-01-19T22:58:44.182Z,74.20
2023-01-19T23:01:12.931Z,74.35
2023-01-19T23:03:41.445Z,75.21
2023-01-19T23:06:11.901Z,74.76
2023-01-19T23:08:41.790Z,75.44
2023-01-19T23:11:12.789Z,75.01
2023-01-19T23:13:40.898Z,74.92
2023-01-19T23:16:09.475Z,76.16
2023-01-19T23:18:37.811Z,75.55
2023-01-19T23:21:08.688Z,75.10
2023-01-19T23:23:37.665Z,75.82
2023-01-19T23:26:09.739Z,75.98
2023-01-19T23:28:39.343Z,75.85
2023-01-19T23:31:17.719Z,75.42
2023-01-19T23:33:46.000Z,76.63
2023-01-19T23:36:14.461Z,75.78
2023-01-19T23:38:42.998Z,76.14
2023-01-19T23:41:12.240Z,76.43
2023-01-19T23:43:40.127Z,75.14
2023-01-19T23:46:09.830Z,76.02
2023-01-19T23:48:37.960Z,76.24
2023-01-19T23:51:09.593Z,76.35
2023-01-19T23:53:38.107Z,76.13
2023-01-19T23:56:17.441Z,76.77
2023-01-19T23:58:45.868Z,75.66
